sensor_id;sensor_type;location;lat;lon;timestamp;temperature;humidity
8095;DHT22;4090;49.270;8.696;2023-03-31T00:01:11;12.90;99.90
8095;DHT22;4090;49.270;8.696;2023-03-31T00:03:54;12.90;99.90
8095;DHT22;4090;49.270;8.696;2023-03-31T00:06:42;12.90;99.90
8095;DHT22;4090;49.270;8.696;2023-03-31T00:09:24;12.90;99.90
8095;DHT22;4090;49.270;8.696;2023-03-31T00:12:09;12.90;99.90
8095;DHT22;4090;49.270;8.696;2023-03-31T00:14:51;12.90;99.90
8095;DHT22;4090;49.270;8.696;2023-03-31T00:17:32;12.90;99.90
8095;DHT22;4090;49.270;8.696;2023-03-31T00:20:19;12.90;99.90
8095;DHT22;4090;49.270;8.696;2023-03-31T00:23:02;12.90;99.90
8095;DHT22;4090;49.270;8.696;2023-03-31T00:25:45;13.00;99.90
8095;DHT22;4090;49.270;8.696;2023-03-31T00:28:27;12.90;99.90
8095;DHT22;4090;49.270;8.696;2023-03-31T00:31:09;12.90;99.90
8095;DHT22;4090;49.270;8.696;2023-03-31T00:33:51;12.90;99.90
8095;DHT22;4090;49.270;8.696;2023-03-31T00:36:34;12.90;99.90
8095;DHT22;4090;49.270;8.696;2023-03-31T00:39:25;12.90;99.90
8095;DHT22;4090;49.270;8.696;2023-03-31T00:42:11;12.90;99.90
8095;DHT22;4090;49.270;8.696;2023-03-31T00:47:54;12.90;99.90
8095;DHT22;4090;49.270;8.696;2023-03-31T00:50:39;12.90;99.90
8095;DHT22;4090;49.270;8.696;2023-03-31T00:53:27;12.90;99.90
8095;DHT22;4090;49.270;8.696;2023-03-31T00:56:10;12.90;99.90
8095;DHT22;4090;49.270;8.696;2023-03-31T00:58:53;12.90;99.90
8095;DHT22;4090;49.270;8.696;2023-03-31T01:01:37;12.90;99.90
8095;DHT22;4090;49.270;8.696;2023-03-31T01:04:22;13.00;99.90
8095;DHT22;4090;49.270;8.696;2023-03-31T01:07:06;13.00;99.90
8095;DHT22;4090;49.270;8.696;2023-03-31T01:09:50;13.00;99.90
8095;DHT22;4090;49.270;8.696;2023-03-31T01:12:33;13.00;99.90
8095;DHT22;4090;49.270;8.696;2023-03-31T01:15:17;13.00;99.90
8095;DHT22;4090;49.270;8.696;2023-03-31T01:17:59;13.00;99.90
8095;DHT22;4090;49.270;8.696;2023-03-31T01:20:43;13.00;99.90
8095;DHT22;4090;49.270;8.696;2023-03-31T01:23:33;13.00;99.90
8095;DHT22;4090;49.270;8.696;2023-03-31T01:26:30;13.10;99.90
8095;DHT22;4090;49.270;8.696;2023-03-31T01:29:23;13.00;99.90
8095;DHT22;4090;49.270;8.696;2023-03-31T01:35:10;13.00;99.90
8095;DHT22;4090;49.270;8.696;2023-03-31T01:41:13;13.00;99.90
8095;DHT22;4090;49.270;8.696;2023-03-31T01:44:00;13.00;99.90
8095;DHT22;4090;49.270;8.696;2023-03-31T01:46:45;13.00;99.90
8095;DHT22;4090;49.270;8.696;2023-03-31T01:49:33;13.00;99.90
8095;DHT22;4090;49.270;8.696;2023-03-31T01:52:20;13.00;99.90
8095;DHT22;4090;49.270;8.696;2023-03-31T01:55:05;13.00;99.90
8095;DHT22;4090;49.270;8.696;2023-03-31T01:57:49;13.00;99.90
8095;DHT22;4090;49.270;8.696;2023-03-31T02:00:35;13.00;99.90
8095;DHT22;4090;49.270;8.696;2023-03-31T02:03:20;12.90;99.90
8095;DHT22;4090;49.270;8.696;2023-03-31T02:06:04;12.90;99.90
8095;DHT22;4090;49.270;8.696;2023-03-31T02:08:48;12.90;99.90
8095;DHT22;4090;49.270;8.696;2023-03-31T02:11:32;13.00;99.90
8095;DHT22;4090;49.270;8.696;2023-03-31T02:14:17;13.00;99.90
8095;DHT22;4090;49.270;8.696;2023-03-31T02:17:01;12.90;99.90
8095;DHT22;4090;49.270;8.696;2023-03-31T02:19:44;12.90;99.90
8095;DHT22;4090;49.270;8.696;2023-03-31T02:22:28;12.90;99.90
8095;DHT22;4090;49.270;8.696;2023-03-31T02:25:12;12.90;99.90
8095;DHT22;4090;49.270;8.696;2023-03-31T02:27:55;12.90;99.90
8095;DHT22;4090;49.270;8.696;2023-03-31T02:30:40;12.90;99.90
8095;DHT22;4090;49.270;8.696;2023-03-31T02:33:25;12.90;99.90
8095;DHT22;4090;49.270;8.696;2023-03-31T02:36:08;12.90;99.90
8095;DHT22;4090;49.270;8.696;2023-03-31T02:38:51;12.90;99.90
8095;DHT22;4090;49.270;8.696;2023-03-31T02:41:34;12.90;99.90
8095;DHT22;4090;49.270;8.696;2023-03-31T02:44:16;12.80;99.90
8095;DHT22;4090;49.270;8.696;2023-03-31T02:47:00;12.80;99.90
8095;DHT22;4090;49.270;8.696;2023-03-31T02:49:43;12.80;99.90
8095;DHT22;4090;49.270;8.696;2023-03-31T02:52:29;12.90;99.90
8095;DHT22;4090;49.270;8.696;2023-03-31T02:55:21;12.80;99.90
8095;DHT22;4090;49.270;8.696;2023-03-31T02:58:18;12.90;99.90
8095;DHT22;4090;49.270;8.696;2023-03-31T03:01:10;12.80;99.90
8095;DHT22;4090;49.270;8.696;2023-03-31T03:04:00;12.80;99.90
8095;DHT22;4090;49.270;8.696;2023-03-31T03:06:50;12.90;99.90
8095;DHT22;4090;49.270;8.696;2023-03-31T03:09:40;12.80;99.90
8095;DHT22;4090;49.270;8.696;2023-03-31T03:12:26;12.90;99.90
8095;DHT22;4090;49.270;8.696;2023-03-31T03:15:09;12.90;99.90
8095;DHT22;4090;49.270;8.696;2023-03-31T03:17:52;12.80;99.90
8095;DHT22;4090;49.270;8.696;2023-03-31T03:20:35;12.90;99.90
8095;DHT22;4090;49.270;8.696;2023-03-31T03:23:18;12.90;99.90
8095;DHT22;4090;49.270;8.696;2023-03-31T03:26:00;12.80;99.90
8095;DHT22;4090;49.270;8.696;2023-03-31T03:28:41;12.80;99.90
8095;DHT22;4090;49.270;8.696;2023-03-31T03:31:24;12.80;99.90
8095;DHT22;4090;49.270;8.696;2023-03-31T03:34:06;12.80;99.90
8095;DHT22;4090;49.270;8.696;2023-03-31T03:36:50;12.80;99.90
8095;DHT22;4090;49.270;8.696;2023-03-31T03:39:32;12.80;99.90
8095;DHT22;4090;49.270;8.696;2023-03-31T03:42:14;12.80;99.90
8095;DHT22;4090;49.270;8.696;2023-03-31T03:44:56;12.70;99.90
8095;DHT22;4090;49.270;8.696;2023-03-31T03:47:37;12.70;99.90
8095;DHT22;4090;49.270;8.696;2023-03-31T03:50:19;12.70;99.90
8095;DHT22;4090;49.270;8.696;2023-03-31T03:53:02;12.70;99.90
8095;DHT22;4090;49.270;8.696;2023-03-31T03:55:44;12.80;99.90
8095;DHT22;4090;49.270;8.696;2023-03-31T03:58:28;12.70;99.90
8095;DHT22;4090;49.270;8.696;2023-03-31T04:01:10;12.70;99.90
8095;DHT22;4090;49.270;8.696;2023-03-31T04:03:51;12.70;99.90
8095;DHT22;4090;49.270;8.696;2023-03-31T04:06:33;12.70;99.90
8095;DHT22;4090;49.270;8.696;2023-03-31T04:09:16;12.70;99.90
8095;DHT22;4090;49.270;8.696;2023-03-31T04:11:58;12.70;99.90
8095;DHT22;4090;49.270;8.696;2023-03-31T04:14:39;12.70;99.90
8095;DHT22;4090;49.270;8.696;2023-03-31T04:17:21;12.70;99.90
8095;DHT22;4090;49.270;8.696;2023-03-31T04:20:12;12.70;99.90
8095;DHT22;4090;49.270;8.696;2023-03-31T04:22:54;12.70;99.90
8095;DHT22;4090;49.270;8.696;2023-03-31T04:25:37;12.60;99.90
8095;DHT22;4090;49.270;8.696;2023-03-31T04:28:25;12.60;99.90
8095;DHT22;4090;49.270;8.696;2023-03-31T04:31:14;12.60;99.90
8095;DHT22;4090;49.270;8.696;2023-03-31T04:33:56;12.60;99.90
8095;DHT22;4090;49.270;8.696;2023-03-31T04:36:42;12.60;99.90
8095;DHT22;4090;49.270;8.696;2023-03-31T04:39:26;12.60;99.90
8095;DHT22;4090;49.270;8.696;2023-03-31T04:42:11;12.60;99.90
8095;DHT22;4090;49.270;8.696;2023-03-31T04:44:54;12.60;99.90
8095;DHT22;4090;49.270;8.696;2023-03-31T04:47:36;12.60;99.90
8095;DHT22;4090;49.270;8.696;2023-03-31T04:50:17;12.60;99.90
8095;DHT22;4090;49.270;8.696;2023-03-31T04:52:59;12.50;99.90
8095;DHT22;4090;49.270;8.696;2023-03-31T04:55:41;12.60;99.90
8095;DHT22;4090;49.270;8.696;2023-03-31T04:58:24;12.60;99.90
8095;DHT22;4090;49.270;8.696;2023-03-31T05:01:05;12.60;99.90
8095;DHT22;4090;49.270;8.696;2023-03-31T05:03:47;12.50;99.90
8095;DHT22;4090;49.270;8.696;2023-03-31T05:06:29;12.50;99.90
8095;DHT22;4090;49.270;8.696;2023-03-31T05:09:10;12.50;99.90
8095;DHT22;4090;49.270;8.696;2023-03-31T05:11:52;12.50;99.90
8095;DHT22;4090;49.270;8.696;2023-03-31T05:14:36;12.50;99.90
8095;DHT22;4090;49.270;8.696;2023-03-31T05:17:18;12.40;99.90
8095;DHT22;4090;49.270;8.696;2023-03-31T05:19:59;12.40;99.90
8095;DHT22;4090;49.270;8.696;2023-03-31T05:22:45;12.40;99.90
8095;DHT22;4090;49.270;8.696;2023-03-31T05:25:27;12.40;99.90
8095;DHT22;4090;49.270;8.696;2023-03-31T05:28:12;12.40;99.90
8095;DHT22;4090;49.270;8.696;2023-03-31T05:30:55;12.30;99.90
8095;DHT22;4090;49.270;8.696;2023-03-31T05:33:39;12.30;99.90
8095;DHT22;4090;49.270;8.696;2023-03-31T05:36:21;12.30;99.90
8095;DHT22;4090;49.270;8.696;2023-03-31T05:39:03;12.30;99.90
8095;DHT22;4090;49.270;8.696;2023-03-31T05:41:45;12.20;99.90
8095;DHT22;4090;49.270;8.696;2023-03-31T05:44:27;12.20;99.90
8095;DHT22;4090;49.270;8.696;2023-03-31T05:47:10;12.20;99.90
8095;DHT22;4090;49.270;8.696;2023-03-31T05:49:52;12.20;99.90
8095;DHT22;4090;49.270;8.696;2023-03-31T05:52:34;12.20;99.90
8095;DHT22;4090;49.270;8.696;2023-03-31T05:55:16;12.20;99.90
8095;DHT22;4090;49.270;8.696;2023-03-31T05:57:58;12.10;99.90
8095;DHT22;4090;49.270;8.696;2023-03-31T06:00:39;12.10;99.90
8095;DHT22;4090;49.270;8.696;2023-03-31T06:03:25;12.10;99.90
8095;DHT22;4090;49.270;8.696;2023-03-31T06:06:07;12.10;99.90
8095;DHT22;4090;49.270;8.696;2023-03-31T06:08:49;12.00;99.90
8095;DHT22;4090;49.270;8.696;2023-03-31T06:11:30;12.00;99.90
8095;DHT22;4090;49.270;8.696;2023-03-31T06:14:12;12.00;99.90
8095;DHT22;4090;49.270;8.696;2023-03-31T06:16:54;11.90;99.90
8095;DHT22;4090;49.270;8.696;2023-03-31T06:19:37;11.90;99.90
8095;DHT22;4090;49.270;8.696;2023-03-31T06:22:19;11.90;99.90
8095;DHT22;4090;49.270;8.696;2023-03-31T06:25:01;11.90;99.90
8095;DHT22;4090;49.270;8.696;2023-03-31T06:27:43;11.90;99.90
8095;DHT22;4090;49.270;8.696;2023-03-31T06:30:25;11.90;99.90
8095;DHT22;4090;49.270;8.696;2023-03-31T06:33:06;11.90;99.90
8095;DHT22;4090;49.270;8.696;2023-03-31T06:35:49;11.90;99.90
8095;DHT22;4090;49.270;8.696;2023-03-31T06:38:31;11.90;99.90
8095;DHT22;4090;49.270;8.696;2023-03-31T06:41:13;11.90;99.90
8095;DHT22;4090;49.270;8.696;2023-03-31T06:43:55;11.90;99.90
8095;DHT22;4090;49.270;8.696;2023-03-31T06:46:37;11.80;99.90
8095;DHT22;4090;49.270;8.696;2023-03-31T06:49:19;11.80;99.90
8095;DHT22;4090;49.270;8.696;2023-03-31T06:52:02;11.80;99.90
8095;DHT22;4090;49.270;8.696;2023-03-31T06:54:44;11.80;99.90
8095;DHT22;4090;49.270;8.696;2023-03-31T06:57:26;11.80;99.90
8095;DHT22;4090;49.270;8.696;2023-03-31T07:00:08;11.80;99.90
8095;DHT22;4090;49.270;8.696;2023-03-31T07:02:50;11.80;99.90
8095;DHT22;4090;49.270;8.696;2023-03-31T07:05:32;11.80;99.90
8095;DHT22;4090;49.270;8.696;2023-03-31T07:08:15;11.80;99.90
8095;DHT22;4090;49.270;8.696;2023-03-31T07:10:59;11.90;99.90
8095;DHT22;4090;49.270;8.696;2023-03-31T07:13:41;11.90;99.90
8095;DHT22;4090;49.270;8.696;2023-03-31T07:16:22;11.90;99.90
8095;DHT22;4090;49.270;8.696;2023-03-31T07:19:05;11.90;99.90
8095;DHT22;4090;49.270;8.696;2023-03-31T07:21:47;11.90;99.90
8095;DHT22;4090;49.270;8.696;2023-03-31T07:24:30;12.00;99.90
8095;DHT22;4090;49.270;8.696;2023-03-31T07:27:12;12.00;99.90
8095;DHT22;4090;49.270;8.696;2023-03-31T07:29:53;12.00;99.90
8095;DHT22;4090;49.270;8.696;2023-03-31T07:32:35;12.00;99.90
8095;DHT22;4090;49.270;8.696;2023-03-31T07:35:19;12.10;99.90
8095;DHT22;4090;49.270;8.696;2023-03-31T07:38:02;12.10;99.90
8095;DHT22;4090;49.270;8.696;2023-03-31T07:40:45;12.10;99.90
8095;DHT22;4090;49.270;8.696;2023-03-31T07:43:27;12.20;99.90
8095;DHT22;4090;49.270;8.696;2023-03-31T07:46:13;12.20;99.90
8095;DHT22;4090;49.270;8.696;2023-03-31T07:48:55;12.20;99.90
8095;DHT22;4090;49.270;8.696;2023-03-31T07:51:37;12.30;99.90
8095;DHT22;4090;49.270;8.696;2023-03-31T07:54:19;12.30;99.90
8095;DHT22;4090;49.270;8.696;2023-03-31T07:57:02;12.30;99.90
8095;DHT22;4090;49.270;8.696;2023-03-31T07:59:45;12.30;99.90
8095;DHT22;4090;49.270;8.696;2023-03-31T08:02:27;12.30;99.90
8095;DHT22;4090;49.270;8.696;2023-03-31T08:05:09;12.30;99.90
8095;DHT22;4090;49.270;8.696;2023-03-31T08:07:51;12.30;99.90
8095;DHT22;4090;49.270;8.696;2023-03-31T08:10:33;12.30;99.90
8095;DHT22;4090;49.270;8.696;2023-03-31T08:13:21;12.40;99.90
8095;DHT22;4090;49.270;8.696;2023-03-31T08:16:02;12.40;99.90
8095;DHT22;4090;49.270;8.696;2023-03-31T08:18:44;12.40;99.90
8095;DHT22;4090;49.270;8.696;2023-03-31T08:21:26;12.40;99.90
8095;DHT22;4090;49.270;8.696;2023-03-31T08:24:08;12.50;99.90
8095;DHT22;4090;49.270;8.696;2023-03-31T08:26:50;12.50;99.90
8095;DHT22;4090;49.270;8.696;2023-03-31T08:29:33;12.50;99.90
8095;DHT22;4090;49.270;8.696;2023-03-31T08:32:15;12.50;99.90
8095;DHT22;4090;49.270;8.696;2023-03-31T08:34:57;12.60;99.90
8095;DHT22;4090;49.270;8.696;2023-03-31T08:37:39;12.60;99.90
8095;DHT22;4090;49.270;8.696;2023-03-31T08:40:21;12.70;99.90
8095;DHT22;4090;49.270;8.696;2023-03-31T08:43:05;12.70;99.90
8095;DHT22;4090;49.270;8.696;2023-03-31T08:45:49;12.80;99.90
8095;DHT22;4090;49.270;8.696;2023-03-31T08:48:33;12.80;99.90
8095;DHT22;4090;49.270;8.696;2023-03-31T08:51:17;12.90;99.90
8095;DHT22;4090;49.270;8.696;2023-03-31T08:54:01;12.90;99.90
8095;DHT22;4090;49.270;8.696;2023-03-31T08:56:45;13.00;99.90
8095;DHT22;4090;49.270;8.696;2023-03-31T08:59:28;13.10;99.90
8095;DHT22;4090;49.270;8.696;2023-03-31T09:02:14;13.10;99.90
8095;DHT22;4090;49.270;8.696;2023-03-31T09:05:01;13.20;99.90
8095;DHT22;4090;49.270;8.696;2023-03-31T09:07:50;13.20;99.90
8095;DHT22;4090;49.270;8.696;2023-03-31T09:10:37;13.30;99.90
8095;DHT22;4090;49.270;8.696;2023-03-31T09:13:23;13.40;99.90
8095;DHT22;4090;49.270;8.696;2023-03-31T09:16:10;13.40;99.90
8095;DHT22;4090;49.270;8.696;2023-03-31T09:18:57;13.50;99.90
8095;DHT22;4090;49.270;8.696;2023-03-31T09:21:40;13.50;99.90
8095;DHT22;4090;49.270;8.696;2023-03-31T09:24:26;13.60;99.90
8095;DHT22;4090;49.270;8.696;2023-03-31T09:27:10;13.50;99.90
8095;DHT22;4090;49.270;8.696;2023-03-31T09:29:54;13.70;99.90
8095;DHT22;4090;49.270;8.696;2023-03-31T09:32:37;13.70;99.90
8095;DHT22;4090;49.270;8.696;2023-03-31T09:35:21;13.80;99.90
8095;DHT22;4090;49.270;8.696;2023-03-31T09:38:06;13.90;99.90
8095;DHT22;4090;49.270;8.696;2023-03-31T09:40:50;14.00;99.90
8095;DHT22;4090;49.270;8.696;2023-03-31T09:43:32;14.00;99.90
8095;DHT22;4090;49.270;8.696;2023-03-31T09:46:16;14.00;99.90
8095;DHT22;4090;49.270;8.696;2023-03-31T09:48:59;14.10;99.90
8095;DHT22;4090;49.270;8.696;2023-03-31T09:51:45;14.20;99.90
8095;DHT22;4090;49.270;8.696;2023-03-31T09:54:30;14.20;99.90
8095;DHT22;4090;49.270;8.696;2023-03-31T09:57:15;14.20;99.90
8095;DHT22;4090;49.270;8.696;2023-03-31T10:00:04;14.20;99.90
8095;DHT22;4090;49.270;8.696;2023-03-31T10:02:53;14.30;99.90
8095;DHT22;4090;49.270;8.696;2023-03-31T10:05:36;14.30;99.90
8095;DHT22;4090;49.270;8.696;2023-03-31T10:08:22;14.30;99.90
8095;DHT22;4090;49.270;8.696;2023-03-31T10:11:08;14.30;99.90
8095;DHT22;4090;49.270;8.696;2023-03-31T10:13:51;14.30;99.90
8095;DHT22;4090;49.270;8.696;2023-03-31T10:16:42;14.20;99.90
8095;DHT22;4090;49.270;8.696;2023-03-31T10:19:25;14.20;99.90
8095;DHT22;4090;49.270;8.696;2023-03-31T10:22:13;14.10;99.90
8095;DHT22;4090;49.270;8.696;2023-03-31T10:25:03;14.00;99.90
8095;DHT22;4090;49.270;8.696;2023-03-31T10:27:50;13.90;99.90
8095;DHT22;4090;49.270;8.696;2023-03-31T10:30:33;13.90;99.90
8095;DHT22;4090;49.270;8.696;2023-03-31T10:33:18;13.80;99.90
8095;DHT22;4090;49.270;8.696;2023-03-31T10:36:01;13.80;99.90
8095;DHT22;4090;49.270;8.696;2023-03-31T10:38:43;13.90;99.90
8095;DHT22;4090;49.270;8.696;2023-03-31T10:41:28;13.90;99.90
8095;DHT22;4090;49.270;8.696;2023-03-31T10:47:15;13.90;99.90
8095;DHT22;4090;49.270;8.696;2023-03-31T10:49:58;13.90;99.90
8095;DHT22;4090;49.270;8.696;2023-03-31T10:52:44;13.90;99.90
8095;DHT22;4090;49.270;8.696;2023-03-31T10:55:28;13.60;99.90
8095;DHT22;4090;49.270;8.696;2023-03-31T10:58:16;13.40;99.90
8095;DHT22;4090;49.270;8.696;2023-03-31T11:01:05;13.20;99.90
8095;DHT22;4090;49.270;8.696;2023-03-31T11:03:53;12.90;99.90
8095;DHT22;4090;49.270;8.696;2023-03-31T11:06:38;12.50;99.90
8095;DHT22;4090;49.270;8.696;2023-03-31T11:09:32;12.30;99.90
8095;DHT22;4090;49.270;8.696;2023-03-31T11:12:16;12.10;99.90
8095;DHT22;4090;49.270;8.696;2023-03-31T11:15:05;12.00;99.90
8095;DHT22;4090;49.270;8.696;2023-03-31T11:17:55;12.00;99.90
8095;DHT22;4090;49.270;8.696;2023-03-31T11:20:40;12.00;99.90
8095;DHT22;4090;49.270;8.696;2023-03-31T11:23:24;12.00;99.90
8095;DHT22;4090;49.270;8.696;2023-03-31T11:26:09;12.00;99.90
8095;DHT22;4090;49.270;8.696;2023-03-31T11:28:55;12.00;99.90
8095;DHT22;4090;49.270;8.696;2023-03-31T11:31:42;12.00;99.90
8095;DHT22;4090;49.270;8.696;2023-03-31T11:34:41;12.10;99.90
8095;DHT22;4090;49.270;8.696;2023-03-31T11:37:32;12.20;99.90
8095;DHT22;4090;49.270;8.696;2023-03-31T11:43:19;12.50;99.90
8095;DHT22;4090;49.270;8.696;2023-03-31T11:46:05;12.60;99.90
8095;DHT22;4090;49.270;8.696;2023-03-31T11:48:50;12.80;99.90
8095;DHT22;4090;49.270;8.696;2023-03-31T11:51:39;12.90;99.90
8095;DHT22;4090;49.270;8.696;2023-03-31T11:54:24;12.90;99.90
8095;DHT22;4090;49.270;8.696;2023-03-31T11:57:08;13.00;99.90
8095;DHT22;4090;49.270;8.696;2023-03-31T11:59:52;13.00;99.90
8095;DHT22;4090;49.270;8.696;2023-03-31T12:02:37;13.10;99.90
8095;DHT22;4090;49.270;8.696;2023-03-31T12:05:21;13.10;99.90
8095;DHT22;4090;49.270;8.696;2023-03-31T12:08:06;13.20;99.90
8095;DHT22;4090;49.270;8.696;2023-03-31T12:10:49;13.20;99.90
8095;DHT22;4090;49.270;8.696;2023-03-31T12:13:38;13.30;99.90
8095;DHT22;4090;49.270;8.696;2023-03-31T12:16:21;13.30;99.90
8095;DHT22;4090;49.270;8.696;2023-03-31T12:19:04;13.50;99.90
8095;DHT22;4090;49.270;8.696;2023-03-31T12:21:49;13.50;99.90
8095;DHT22;4090;49.270;8.696;2023-03-31T12:24:31;13.50;99.90
8095;DHT22;4090;49.270;8.696;2023-03-31T12:27:15;13.50;99.90
8095;DHT22;4090;49.270;8.696;2023-03-31T12:29:59;13.50;99.90
8095;DHT22;4090;49.270;8.696;2023-03-31T12:32:42;13.50;99.90
8095;DHT22;4090;49.270;8.696;2023-03-31T12:35:26;13.50;99.90
8095;DHT22;4090;49.270;8.696;2023-03-31T12:38:26;13.50;99.90
8095;DHT22;4090;49.270;8.696;2023-03-31T12:41:13;13.50;99.90
8095;DHT22;4090;49.270;8.696;2023-03-31T12:44:02;13.40;99.90
8095;DHT22;4090;49.270;8.696;2023-03-31T12:46:51;13.40;99.90
8095;DHT22;4090;49.270;8.696;2023-03-31T12:49:42;13.40;99.90
8095;DHT22;4090;49.270;8.696;2023-03-31T12:52:31;13.40;99.90
8095;DHT22;4090;49.270;8.696;2023-03-31T12:55:25;13.40;99.90
8095;DHT22;4090;49.270;8.696;2023-03-31T13:01:15;13.30;99.90
8095;DHT22;4090;49.270;8.696;2023-03-31T13:04:07;13.40;99.90
8095;DHT22;4090;49.270;8.696;2023-03-31T13:06:54;13.30;99.90
8095;DHT22;4090;49.270;8.696;2023-03-31T13:09:40;13.30;99.90
8095;DHT22;4090;49.270;8.696;2023-03-31T13:12:24;13.30;99.90
8095;DHT22;4090;49.270;8.696;2023-03-31T13:15:11;13.30;99.90
8095;DHT22;4090;49.270;8.696;2023-03-31T13:17:55;13.30;99.90
8095;DHT22;4090;49.270;8.696;2023-03-31T13:20:38;13.20;99.90
8095;DHT22;4090;49.270;8.696;2023-03-31T13:23:21;13.20;99.90
8095;DHT22;4090;49.270;8.696;2023-03-31T13:26:05;13.20;99.90
8095;DHT22;4090;49.270;8.696;2023-03-31T13:28:49;13.10;99.90
8095;DHT22;4090;49.270;8.696;2023-03-31T13:32:16;13.00;99.90
8095;DHT22;4090;49.270;8.696;2023-03-31T13:35:00;12.90;99.90
8095;DHT22;4090;49.270;8.696;2023-03-31T13:37:56;12.90;99.90
8095;DHT22;4090;49.270;8.696;2023-03-31T13:44:03;12.80;99.90
8095;DHT22;4090;49.270;8.696;2023-03-31T13:46:48;12.80;99.90
8095;DHT22;4090;49.270;8.696;2023-03-31T13:49:42;12.90;99.90
8095;DHT22;4090;49.270;8.696;2023-03-31T13:52:31;12.90;99.90
8095;DHT22;4090;49.270;8.696;2023-03-31T13:58:22;12.90;99.90
8095;DHT22;4090;49.270;8.696;2023-03-31T14:01:12;13.00;99.90
8095;DHT22;4090;49.270;8.696;2023-03-31T14:04:00;13.00;99.90
8095;DHT22;4090;49.270;8.696;2023-03-31T14:06:47;13.10;99.90
8095;DHT22;4090;49.270;8.696;2023-03-31T14:09:30;13.20;99.90
8095;DHT22;4090;49.270;8.696;2023-03-31T14:12:19;13.30;99.90
8095;DHT22;4090;49.270;8.696;2023-03-31T14:15:02;13.30;99.90
8095;DHT22;4090;49.270;8.696;2023-03-31T14:17:45;13.40;99.90
8095;DHT22;4090;49.270;8.696;2023-03-31T14:20:29;13.40;99.90
8095;DHT22;4090;49.270;8.696;2023-03-31T14:23:17;13.50;99.90
8095;DHT22;4090;49.270;8.696;2023-03-31T14:26:03;13.50;99.90
8095;DHT22;4090;49.270;8.696;2023-03-31T14:28:52;13.50;99.90
8095;DHT22;4090;49.270;8.696;2023-03-31T14:31:38;13.50;99.90
8095;DHT22;4090;49.270;8.696;2023-03-31T14:34:27;13.60;99.90
8095;DHT22;4090;49.270;8.696;2023-03-31T14:37:14;13.60;99.90
8095;DHT22;4090;49.270;8.696;2023-03-31T14:39:57;13.60;99.90
8095;DHT22;4090;49.270;8.696;2023-03-31T14:42:39;13.40;99.90
8095;DHT22;4090;49.270;8.696;2023-03-31T14:45:22;13.30;99.90
8095;DHT22;4090;49.270;8.696;2023-03-31T14:48:08;13.20;99.90
8095;DHT22;4090;49.270;8.696;2023-03-31T14:50:55;13.20;99.90
8095;DHT22;4090;49.270;8.696;2023-03-31T14:53:37;13.00;99.90
8095;DHT22;4090;49.270;8.696;2023-03-31T14:56:19;13.00;99.90
8095;DHT22;4090;49.270;8.696;2023-03-31T14:59:02;13.00;99.90
8095;DHT22;4090;49.270;8.696;2023-03-31T15:01:44;12.90;99.90
8095;DHT22;4090;49.270;8.696;2023-03-31T15:04:27;12.90;99.90
8095;DHT22;4090;49.270;8.696;2023-03-31T15:07:11;12.90;99.90
8095;DHT22;4090;49.270;8.696;2023-03-31T15:09:53;12.80;99.90
8095;DHT22;4090;49.270;8.696;2023-03-31T15:12:35;12.80;99.90
8095;DHT22;4090;49.270;8.696;2023-03-31T15:15:18;12.90;99.90
8095;DHT22;4090;49.270;8.696;2023-03-31T15:18:00;12.90;99.90
8095;DHT22;4090;49.270;8.696;2023-03-31T15:20:42;12.90;99.90
8095;DHT22;4090;49.270;8.696;2023-03-31T15:23:26;12.90;99.90
8095;DHT22;4090;49.270;8.696;2023-03-31T15:26:08;12.80;99.90
8095;DHT22;4090;49.270;8.696;2023-03-31T15:28:52;12.80;99.90
8095;DHT22;4090;49.270;8.696;2023-03-31T15:31:34;12.80;99.90
8095;DHT22;4090;49.270;8.696;2023-03-31T15:34:20;12.80;99.90
8095;DHT22;4090;49.270;8.696;2023-03-31T15:37:05;12.90;99.90
8095;DHT22;4090;49.270;8.696;2023-03-31T15:39:48;12.90;99.90
8095;DHT22;4090;49.270;8.696;2023-03-31T15:42:30;12.80;99.90
8095;DHT22;4090;49.270;8.696;2023-03-31T15:45:24;12.90;99.90
8095;DHT22;4090;49.270;8.696;2023-03-31T15:48:17;12.90;99.90
8095;DHT22;4090;49.270;8.696;2023-03-31T15:50:59;12.90;99.90
8095;DHT22;4090;49.270;8.696;2023-03-31T15:53:42;12.90;99.90
8095;DHT22;4090;49.270;8.696;2023-03-31T15:56:28;13.00;99.90
8095;DHT22;4090;49.270;8.696;2023-03-31T15:59:20;13.00;99.90
8095;DHT22;4090;49.270;8.696;2023-03-31T16:02:02;12.90;99.90
8095;DHT22;4090;49.270;8.696;2023-03-31T16:04:46;12.90;99.90
8095;DHT22;4090;49.270;8.696;2023-03-31T16:07:28;13.00;99.90
8095;DHT22;4090;49.270;8.696;2023-03-31T16:10:14;13.00;99.90
8095;DHT22;4090;49.270;8.696;2023-03-31T16:12:58;13.00;99.90
8095;DHT22;4090;49.270;8.696;2023-03-31T16:15:43;12.90;99.90
8095;DHT22;4090;49.270;8.696;2023-03-31T16:18:27;13.00;99.90
8095;DHT22;4090;49.270;8.696;2023-03-31T16:21:11;13.00;99.90
8095;DHT22;4090;49.270;8.696;2023-03-31T16:23:56;13.00;99.90
8095;DHT22;4090;49.270;8.696;2023-03-31T16:26:38;13.00;99.90
8095;DHT22;4090;49.270;8.696;2023-03-31T16:29:21;13.00;99.90
8095;DHT22;4090;49.270;8.696;2023-03-31T16:32:05;12.90;99.90
8095;DHT22;4090;49.270;8.696;2023-03-31T16:34:51;13.00;99.90
8095;DHT22;4090;49.270;8.696;2023-03-31T16:37:32;12.90;99.90
8095;DHT22;4090;49.270;8.696;2023-03-31T16:40:14;12.90;99.90
8095;DHT22;4090;49.270;8.696;2023-03-31T16:43:05;12.90;99.90
8095;DHT22;4090;49.270;8.696;2023-03-31T16:45:49;12.90;99.90
8095;DHT22;4090;49.270;8.696;2023-03-31T16:48:31;12.80;99.90
8095;DHT22;4090;49.270;8.696;2023-03-31T16:51:14;12.80;99.90
8095;DHT22;4090;49.270;8.696;2023-03-31T16:53:56;12.70;99.90
8095;DHT22;4090;49.270;8.696;2023-03-31T16:56:38;12.80;99.90
8095;DHT22;4090;49.270;8.696;2023-03-31T16:59:20;12.80;99.90
8095;DHT22;4090;49.270;8.696;2023-03-31T17:02:04;12.70;99.90
8095;DHT22;4090;49.270;8.696;2023-03-31T17:04:46;12.70;99.90
8095;DHT22;4090;49.270;8.696;2023-03-31T17:07:28;12.70;99.90
8095;DHT22;4090;49.270;8.696;2023-03-31T17:10:10;12.60;99.90
8095;DHT22;4090;49.270;8.696;2023-03-31T17:12:52;12.60;99.90
8095;DHT22;4090;49.270;8.696;2023-03-31T17:15:33;12.60;99.90
8095;DHT22;4090;49.270;8.696;2023-03-31T17:18:16;12.50;99.90
8095;DHT22;4090;49.270;8.696;2023-03-31T17:21:02;12.50;99.90
8095;DHT22;4090;49.270;8.696;2023-03-31T17:23:45;12.50;99.90
8095;DHT22;4090;49.270;8.696;2023-03-31T17:26:26;12.40;99.90
8095;DHT22;4090;49.270;8.696;2023-03-31T17:29:08;12.40;99.90
8095;DHT22;4090;49.270;8.696;2023-03-31T17:31:50;12.40;99.90
8095;DHT22;4090;49.270;8.696;2023-03-31T17:34:33;12.40;99.90
8095;DHT22;4090;49.270;8.696;2023-03-31T17:37:15;12.30;99.90
8095;DHT22;4090;49.270;8.696;2023-03-31T17:39:57;12.40;99.90
8095;DHT22;4090;49.270;8.696;2023-03-31T17:42:39;12.20;99.90
8095;DHT22;4090;49.270;8.696;2023-03-31T17:45:21;12.20;99.90
8095;DHT22;4090;49.270;8.696;2023-03-31T17:48:03;12.20;99.90
8095;DHT22;4090;49.270;8.696;2023-03-31T17:50:47;12.10;99.90
8095;DHT22;4090;49.270;8.696;2023-03-31T17:53:29;12.10;99.90
8095;DHT22;4090;49.270;8.696;2023-03-31T17:56:11;12.10;99.90
8095;DHT22;4090;49.270;8.696;2023-03-31T17:58:52;12.00;99.90
8095;DHT22;4090;49.270;8.696;2023-03-31T18:01:35;12.00;99.90
8095;DHT22;4090;49.270;8.696;2023-03-31T18:04:17;12.00;99.90
8095;DHT22;4090;49.270;8.696;2023-03-31T18:07:00;12.00;99.90
8095;DHT22;4090;49.270;8.696;2023-03-31T18:09:41;12.00;99.90
8095;DHT22;4090;49.270;8.696;2023-03-31T18:12:23;11.90;99.90
8095;DHT22;4090;49.270;8.696;2023-03-31T18:15:06;11.90;99.90
8095;DHT22;4090;49.270;8.696;2023-03-31T18:17:49;11.90;99.90